Time;durP1;ratioP1;P1;durP2;ratioP2;P2;SDS_P1;SDS_P2;PMS_P1;PMS_P2;Temp;Humidity;BMP_temperature;BMP_pressure;BME280_temperature;BME280_humidity;BME280_pressure;Samples;Min_cycle;Max_cycle;Signal;HPM_P1;HPM_P2
2024/04/26 00:01:58;;;;;;;8.95;7.82;;;15.50;69.60;;;;;;4216504;27;20029;-39
2024/04/26 00:04:41;;;;;;;11.55;7.55;;;15.50;69.50;;;;;;4194023;27;20025;-39
2024/04/26 00:07:28;;;;;;;10.20;7.35;;;15.40;69.40;;;;;;4208104;27;20013;-39
2024/04/26 00:10:11;;;;;;;8.93;7.28;;;15.40;69.30;;;;;;4220674;27;20051;-39
2024/04/26 00:12:54;;;;;;;8.88;7.88;;;15.40;69.30;;;;;;4220734;27;20086;-39
2024/04/26 00:15:37;;;;;;;9.93;8.70;;;15.40;69.40;;;;;;4194252;27;20021;-38
2024/04/26 00:18:20;;;;;;;10.35;7.72;;;15.40;69.50;;;;;;4194312;27;20025;-39
2024/04/26 00:21:03;;;;;;;9.63;7.05;;;15.40;69.40;;;;;;4193607;27;20025;-38
2024/04/26 00:23:49;;;;;;;9.20;7.55;;;15.40;69.50;;;;;;4202635;27;20082;-44
2024/04/26 00:26:31;;;;;;;8.45;7.10;;;15.40;69.50;;;;;;4219365;27;20082;-39
2024/04/26 00:29:14;;;;;;;7.97;7.18;;;15.40;69.70;;;;;;4219964;27;20086;-39
2024/04/26 00:31:57;;;;;;;7.82;7.13;;;15.40;69.80;;;;;;4213382;27;20025;-38
2024/04/26 00:34:40;;;;;;;13.88;8.15;;;15.30;69.80;;;;;;4194045;27;20051;-39
2024/04/26 00:37:23;;;;;;;11.52;7.72;;;15.30;69.90;;;;;;4214049;27;20522;-39
2024/04/26 00:40:10;;;;;;;8.15;6.93;;;15.30;70.00;;;;;;4219678;27;20852;-39
2024/04/26 00:42:52;;;;;;;9.55;6.72;;;15.30;69.90;;;;;;4219820;27;20093;-39
2024/04/26 00:45:35;;;;;;;7.30;6.20;;;15.30;70.00;;;;;;4193498;27;20495;-39
2024/04/26 00:48:18;;;;;;;8.15;6.50;;;15.30;70.10;;;;;;4193881;27;20017;-39
2024/04/26 00:51:01;;;;;;;8.52;7.15;;;15.30;70.30;;;;;;4210138;27;20021;-38
2024/04/26 00:53:44;;;;;;;7.70;6.90;;;15.30;70.30;;;;;;4198834;27;20084;-39
2024/04/26 00:56:30;;;;;;;10.05;6.93;;;15.30;70.30;;;;;;4219723;27;20024;-39
2024/04/26 00:59:16;;;;;;;8.55;6.95;;;15.30;70.30;;;;;;4219297;27;20024;-39
2024/04/26 01:01:59;;;;;;;9.38;7.13;;;15.30;70.40;;;;;;4218881;27;20078;-39
2024/04/26 01:04:43;;;;;;;8.45;6.20;;;15.30;70.40;;;;;;4219521;27;20055;-39
2024/04/26 01:07:25;;;;;;;8.93;6.10;;;15.30;70.50;;;;;;4218846;27;20089;-40
2024/04/26 01:10:08;;;;;;;9.80;5.95;;;15.30;70.60;;;;;;4219376;27;20678;-39
2024/04/26 01:12:54;;;;;;;9.23;6.40;;;15.30;70.70;;;;;;4219070;27;20703;-39
2024/04/26 01:15:37;;;;;;;7.85;6.43;;;15.30;71.00;;;;;;4217466;27;20067;-39
2024/04/26 01:18:19;;;;;;;9.25;6.95;;;15.30;71.80;;;;;;4219446;27;20025;-39
2024/04/26 01:21:02;;;;;;;7.78;6.30;;;15.40;72.50;;;;;;4219161;27;20153;-39
2024/04/26 01:23:45;;;;;;;8.82;7.32;;;15.30;72.90;;;;;;4219290;27;20008;-39
2024/04/26 01:26:30;;;;;;;8.13;6.30;;;15.30;74.00;;;;;;4199390;27;20048;-37
2024/04/26 01:29:14;;;;;;;8.57;6.80;;;15.30;74.60;;;;;;4235380;27;20089;-38
2024/04/26 01:31:56;;;;;;;10.27;6.97;;;15.30;75.50;;;;;;4202532;27;20021;-38
2024/04/26 01:34:39;;;;;;;7.97;6.93;;;15.30;79.30;;;;;;4195523;27;20095;-38
2024/04/26 01:37:23;;;;;;;8.63;7.22;;;;;;;;;;4213198;27;20093;-38
2024/04/26 01:40:06;;;;;;;10.95;6.85;;;15.20;69.80;;;;;;4221748;27;20021;-38
2024/04/26 01:42:51;;;;;;;9.57;7.20;;;15.10;70.50;;;;;;4221345;27;20024;-37
2024/04/26 01:45:34;;;;;;;10.30;7.88;;;15.10;70.50;;;;;;4195286;27;20576;-38
2024/04/26 01:48:17;;;;;;;9.57;7.20;;;15.10;70.50;;;;;;4211327;27;20025;-37
2024/04/26 01:51:00;;;;;;;8.57;6.85;;;15.10;70.60;;;;;;4220689;27;20058;-38
2024/04/26 01:53:43;;;;;;;8.75;7.70;;;15.10;70.50;;;;;;4221210;27;20067;-37
2024/04/26 01:56:23;;;;;;;7.97;6.82;;;15.10;70.60;;;;;;4219215;27;20337;-38
2024/04/26 01:59:10;;;;;;;8.07;7.07;;;15.10;70.60;;;;;;4220590;27;20054;-38
2024/04/26 02:01:53;;;;;;;8.30;7.22;;;15.10;70.50;;;;;;4221563;27;20350;-38
2024/04/26 02:04:34;;;;;;;11.13;7.35;;;15.10;70.60;;;;;;4206196;27;20021;-37
2024/04/26 02:07:17;;;;;;;8.30;7.38;;;15.10;70.60;;;;;;4211528;27;20342;-37
2024/04/26 02:09:57;;;;;;;8.35;7.53;;;15.10;70.60;;;;;;4221417;27;20019;-37
2024/04/26 02:12:41;;;;;;;8.67;7.60;;;15.10;70.60;;;;;;4195259;27;20645;-38
2024/04/26 02:15:23;;;;;;;7.72;6.90;;;15.10;70.70;;;;;;4221111;27;20020;-37
2024/04/26 02:18:07;;;;;;;9.05;6.53;;;15.10;70.60;;;;;;4221260;27;20020;-37
2024/04/26 02:20:47;;;;;;;8.65;6.93;;;15.10;71.70;;;;;;4221534;27;20412;-38
2024/04/26 02:23:30;;;;;;;8.25;7.45;;;15.10;70.80;;;;;;4220726;27;20091;-37
2024/04/26 02:26:20;;;;;;;8.07;7.13;;;15.00;70.60;;;;;;4196162;27;20531;-37
2024/04/26 02:29:02;;;;;;;9.90;7.82;;;15.10;70.60;;;;;;4221835;27;20086;-37
2024/04/26 02:31:48;;;;;;;8.50;6.78;;;15.10;70.90;;;;;;4196485;27;20025;-37
2024/04/26 02:34:31;;;;;;;9.40;7.53;;;15.00;70.60;;;;;;4211508;27;20022;-38
2024/04/26 02:37:14;;;;;;;8.13;6.97;;;15.10;70.50;;;;;;4219853;27;20024;-37
2024/04/26 02:39:56;;;;;;;7.88;7.05;;;15.10;70.50;;;;;;4194470;27;20408;-37
2024/04/26 02:42:39;;;;;;;8.40;7.40;;;15.10;70.50;;;;;;4193302;27;20145;-37
2024/04/26 02:45:22;;;;;;;9.32;7.97;;;15.00;70.50;;;;;;4193593;27;20013;-37
2024/04/26 02:48:07;;;;;;;10.13;7.43;;;15.00;70.50;;;;;;4218811;27;20017;-37
2024/04/26 02:50:50;;;;;;;8.38;7.50;;;15.00;70.40;;;;;;4204486;27;20022;-37
2024/04/26 02:53:33;;;;;;;7.72;6.93;;;15.00;71.10;;;;;;4194995;27;20088;-37
2024/04/26 02:56:16;;;;;;;9.13;7.70;;;15.10;71.50;;;;;;4197252;27;20048;-37
2024/04/26 02:58:58;;;;;;;9.32;7.20;;;15.10;72.40;;;;;;4220547;27;20024;-37
2024/04/26 03:01:47;;;;;;;8.65;7.32;;;15.10;71.40;;;;;;4220817;27;20020;-37
2024/04/26 03:04:32;;;;;;;9.57;7.38;;;15.20;71.40;;;;;;4207584;27;20064;-37
2024/04/26 03:07:15;;;;;;;9.25;7.90;;;15.20;71.40;;;;;;4210334;27;20082;-37
2024/04/26 03:09:58;;;;;;;8.75;7.68;;;15.30;71.30;;;;;;4220974;27;20364;-38
2024/04/26 03:12:41;;;;;;;8.52;7.63;;;15.30;71.00;;;;;;4220713;27;20085;-38
2024/04/26 03:15:24;;;;;;;8.20;7.38;;;15.40;70.90;;;;;;4220531;27;20089;-38
2024/04/26 03:18:07;;;;;;;8.57;7.68;;;15.40;70.80;;;;;;4220720;27;20860;-38
2024/04/26 03:20:53;;;;;;;9.45;8.45;;;15.40;70.90;;;;;;4221019;27;20078;-38
2024/04/26 03:23:36;;;;;;;8.48;7.43;;;15.40;70.80;;;;;;4220573;27;20040;-38
2024/04/26 03:26:19;;;;;;;8.77;7.22;;;15.50;70.80;;;;;;4213245;27;20017;-38
2024/04/26 03:29:02;;;;;;;10.23;7.22;;;15.60;70.40;;;;;;4220131;27;20023;-38
2024/04/26 03:31:45;;;;;;;8.63;7.75;;;15.60;70.30;;;;;;4220227;27;20021;-38
2024/04/26 03:34:27;;;;;;;9.13;7.35;;;15.60;70.10;;;;;;4210427;27;20062;-38
2024/04/26 03:37:13;;;;;;;7.93;7.13;;;15.70;70.10;;;;;;4194778;27;20087;-38
2024/04/26 03:39:56;;;;;;;9.23;7.53;;;15.60;70.00;;;;;;4211008;27;20491;-38
2024/04/26 03:42:39;;;;;;;8.35;7.40;;;15.60;70.10;;;;;;4194177;27;20021;-38
2024/04/26 03:45:22;;;;;;;9.40;6.95;;;15.60;70.10;;;;;;4201822;27;20016;-38
2024/04/26 03:48:05;;;;;;;7.63;6.90;;;15.70;70.00;;;;;;4199326;27;20086;-38
2024/04/26 03:50:48;;;;;;;8.32;6.90;;;15.70;70.10;;;;;;4194385;27;20458;-38
2024/04/26 03:53:33;;;;;;;9.00;7.43;;;15.70;70.00;;;;;;4193948;27;20461;-38
2024/04/26 03:56:19;;;;;;;9.57;6.97;;;15.80;70.00;;;;;;4200297;27;20096;-38
2024/04/26 03:59:02;;;;;;;9.10;7.35;;;15.80;69.80;;;;;;4220660;27;20025;-38
2024/04/26 04:01:46;;;;;;;10.57;7.55;;;15.80;69.70;;;;;;4219804;27;20062;-38
2024/04/26 04:04:29;;;;;;;8.10;6.97;;;15.80;69.60;;;;;;4219998;27;20028;-38
2024/04/26 04:07:12;;;;;;;9.85;7.15;;;15.80;69.60;;;;;;4213559;27;20085;-38
2024/04/26 04:09:57;;;;;;;10.10;7.50;;;15.80;69.70;;;;;;4219326;27;20512;-38
2024/04/26 04:12:45;;;;;;;8.63;7.47;;;15.80;69.60;;;;;;4219751;27;20085;-45
2024/04/26 04:15:28;;;;;;;9.90;7.13;;;15.80;69.50;;;;;;4210341;27;20453;-47
2024/04/26 04:18:11;;;;;;;8.38;6.85;;;15.80;69.50;;;;;;4219754;27;20124;-47
2024/04/26 04:20:53;;;;;;;10.40;6.85;;;15.80;69.30;;;;;;4219431;27;20025;-51
2024/04/26 04:23:36;;;;;;;10.77;7.30;;;15.80;69.40;;;;;;4219675;27;20089;-51
2024/04/26 04:26:22;;;;;;;10.95;7.57;;;15.80;69.50;;;;;;4219995;27;20346;-49
2024/04/26 04:29:05;;;;;;;7.18;6.45;;;15.80;69.50;;;;;;4207839;27;20039;-51
2024/04/26 04:31:48;;;;;;;9.50;7.65;;;15.80;69.50;;;;;;4193555;27;20101;-50
2024/04/26 04:34:31;;;;;;;9.50;8.00;;;15.80;69.30;;;;;;4200512;27;20430;-51
2024/04/26 04:37:14;;;;;;;8.32;7.13;;;15.80;69.30;;;;;;4219491;27;20020;-51
2024/04/26 04:39:56;;;;;;;9.10;7.20;;;15.80;69.30;;;;;;4236168;27;20148;-52
2024/04/26 04:42:42;;;;;;;10.02;6.82;;;15.80;69.40;;;;;;4219479;27;20090;-51
2024/04/26 04:45:25;;;;;;;8.40;7.55;;;15.80;69.50;;;;;;4218049;27;20024;-51
2024/04/26 04:48:10;;;;;;;10.25;8.05;;;15.80;69.30;;;;;;4216487;27;20066;-46
2024/04/26 04:50:53;;;;;;;8.80;7.32;;;15.80;69.20;;;;;;4193523;27;20021;-49
2024/04/26 04:53:36;;;;;;;12.82;7.15;;;15.90;69.20;;;;;;4193633;27;20020;-52
2024/04/26 04:56:20;;;;;;;9.32;7.15;;;15.90;69.20;;;;;;4193865;27;20350;-37
2024/04/26 04:59:05;;;;;;;9.65;7.43;;;15.90;69.00;;;;;;4228158;27;20091;-38
2024/04/26 05:01:51;;;;;;;8.52;7.00;;;15.90;68.90;;;;;;4193732;27;20051;-39
2024/04/26 05:04:34;;;;;;;9.57;6.88;;;16.00;68.80;;;;;;4218332;27;20077;-37
2024/04/26 05:07:17;;;;;;;9.30;7.00;;;16.00;69.30;;;;;;4236783;27;20013;-37
2024/04/26 05:10:00;;;;;;;8.50;6.90;;;16.00;70.10;;;;;;4222591;27;20025;-37
2024/04/26 05:12:43;;;;;;;7.88;7.07;;;15.90;69.20;;;;;;4220378;27;20020;-38
2024/04/26 05:15:28;;;;;;;7.97;7.18;;;15.90;69.30;;;;;;4214192;27;20066;-38
2024/04/26 05:18:11;;;;;;;8.35;7.40;;;15.90;69.60;;;;;;4222166;27;20044;-37
2024/04/26 05:20:54;;;;;;;7.90;6.80;;;15.90;69.80;;;;;;4222164;27;20028;-37
2024/04/26 05:23:37;;;;;;;7.47;6.78;;;16.00;69.90;;;;;;4221847;27;20086;-37
2024/04/26 05:26:20;;;;;;;9.93;7.68;;;16.00;69.90;;;;;;4221429;27;20086;-37
2024/04/26 05:29:03;;;;;;;8.57;7.18;;;16.10;69.90;;;;;;4238551;27;20021;-37
2024/04/26 05:31:48;;;;;;;8.30;6.78;;;16.20;69.70;;;;;;4222190;27;20020;-37
2024/04/26 05:34:31;;;;;;;7.80;6.68;;;16.30;69.20;;;;;;4218921;27;20059;-38
2024/04/26 05:37:14;;;;;;;7.57;6.70;;;16.40;68.80;;;;;;4221239;27;20067;-39
2024/04/26 05:39:57;;;;;;;7.43;5.93;;;16.50;68.30;;;;;;4221369;27;20059;-39
2024/04/26 05:42:39;;;;;;;8.30;7.47;;;16.60;68.10;;;;;;4220216;27;20082;-37
2024/04/26 05:45:22;;;;;;;8.35;6.20;;;16.60;67.90;;;;;;4205169;27;20022;-37
2024/04/26 05:48:08;;;;;;;15.25;7.53;;;16.70;68.10;;;;;;4195755;27;20014;-39
2024/04/26 05:50:51;;;;;;;11.65;7.20;;;16.70;68.60;;;;;;4195905;27;20026;-39
2024/04/26 05:53:34;;;;;;;8.50;6.85;;;16.70;68.70;;;;;;4212660;27;20457;-37
2024/04/26 05:56:17;;;;;;;8.07;7.28;;;16.70;68.30;;;;;;4213736;27;20042;-38
2024/04/26 05:58:59;;;;;;;13.98;7.55;;;16.70;68.20;;;;;;4221437;27;20021;-37
2024/04/26 06:01:42;;;;;;;8.88;6.95;;;16.70;68.40;;;;;;4220637;27;20016;-38
2024/04/26 06:04:28;;;;;;;8.30;6.25;;;16.70;68.60;;;;;;4195651;27;20017;-38
2024/04/26 06:07:11;;;;;;;8.27;7.00;;;16.60;68.70;;;;;;4201644;27;20021;-38
2024/04/26 06:09:54;;;;;;;11.38;6.95;;;16.50;69.00;;;;;;4214025;27;20020;-38
2024/04/26 06:12:40;;;;;;;7.85;6.72;;;16.50;69.40;;;;;;4220928;27;20034;-38
2024/04/26 06:15:24;;;;;;;9.27;6.82;;;16.40;70.00;;;;;;4195161;27;20033;-38
2024/04/26 06:18:07;;;;;;;10.13;6.78;;;16.40;70.20;;;;;;4195311;27;20083;-37
2024/04/26 06:20:53;;;;;;;11.32;7.90;;;16.40;70.00;;;;;;4226315;27;20032;-38
2024/04/26 06:23:36;;;;;;;10.45;7.50;;;16.40;70.70;;;;;;4220673;27;20024;-38
2024/04/26 06:26:19;;;;;;;8.88;7.20;;;16.40;69.70;;;;;;4220798;27;20045;-39
2024/04/26 06:29:01;;;;;;;8.32;7.05;;;16.40;69.60;;;;;;4219612;27;20518;-38
2024/04/26 06:31:44;;;;;;;11.60;8.18;;;16.40;69.50;;;;;;4221521;27;20134;-38
2024/04/26 06:34:27;;;;;;;9.48;7.53;;;16.40;69.30;;;;;;4221235;27;20024;-37
2024/04/26 06:37:13;;;;;;;12.18;7.30;;;16.50;69.00;;;;;;4221204;27;20465;-39
2024/04/26 06:39:56;;;;;;;8.98;6.70;;;16.50;68.80;;;;;;4218563;27;20120;-38
2024/04/26 06:42:40;;;;;;;9.48;7.32;;;16.60;68.60;;;;;;4247817;27;20092;-37
2024/04/26 06:45:22;;;;;;;7.82;6.97;;;16.60;68.30;;;;;;4239616;27;20025;-37
2024/04/26 06:48:06;;;;;;;8.18;6.53;;;16.50;68.10;;;;;;4210330;27;20361;-37
2024/04/26 06:50:49;;;;;;;8.45;6.75;;;16.50;68.10;;;;;;4220822;27;20024;-38
2024/04/26 06:53:34;;;;;;;11.30;7.15;;;16.50;68.10;;;;;;4210868;27;20021;-38
2024/04/26 06:56:17;;;;;;;10.20;7.43;;;16.40;68.20;;;;;;4199938;27;20028;-38
2024/04/26 06:59:00;;;;;;;10.93;7.18;;;16.40;68.40;;;;;;4224184;27;20089;-38
2024/04/26 07:01:46;;;;;;;7.88;7.07;;;16.40;68.60;;;;;;4216296;27;20350;-38
2024/04/26 07:04:29;;;;;;;7.40;6.68;;;16.30;68.50;;;;;;4239440;27;20085;-37
2024/04/26 07:07:12;;;;;;;8.77;6.88;;;16.30;68.60;;;;;;4203034;27;20140;-37
2024/04/26 07:09:57;;;;;;;9.88;7.20;;;16.30;68.60;;;;;;4209697;27;20028;-38
2024/04/26 07:12:40;;;;;;;10.63;6.85;;;16.30;68.50;;;;;;4199038;27;20063;-38
2024/04/26 07:15:23;;;;;;;11.15;7.20;;;16.20;68.60;;;;;;4220823;27;20017;-38
2024/04/26 07:18:08;;;;;;;8.48;7.28;;;16.20;68.70;;;;;;4198185;27;20021;-50
2024/04/26 07:20:50;;;;;;;8.27;6.72;;;16.20;68.90;;;;;;4211676;27;20090;-47
2024/04/26 07:23:34;;;;;;;8.75;6.45;;;16.10;68.90;;;;;;4212729;27;20334;-50
2024/04/26 07:26:20;;;;;;;10.75;6.47;;;16.10;69.10;;;;;;4217246;27;20425;-38
2024/04/26 07:29:03;;;;;;;11.30;6.50;;;16.00;69.10;;;;;;4219815;27;20021;-37
2024/04/26 07:31:56;;;;;;;6.85;5.97;;;16.00;70.30;;;;;;4210604;27;20020;-38
2024/04/26 07:34:39;;;;;;;10.75;4.90;;;16.00;69.70;;;;;;4206179;27;20046;-38
2024/04/26 07:37:22;;;;;;;7.43;5.22;;;16.00;69.70;;;;;;4213986;27;20016;-49
2024/04/26 07:40:04;;;;;;;8.05;5.88;;;15.90;69.80;;;;;;4219502;27;20068;-47
2024/04/26 07:42:50;;;;;;;5.43;4.50;;;15.90;70.00;;;;;;4227524;27;20094;-51
2024/04/26 07:45:33;;;;;;;4.43;3.85;;;15.90;70.10;;;;;;4232878;27;20020;-49
2024/04/26 07:48:15;;;;;;;4.93;3.78;;;15.90;70.10;;;;;;4193881;27;20020;-48
2024/04/26 07:50:58;;;;;;;5.05;3.55;;;15.90;69.80;;;;;;4196138;27;20351;-47
2024/04/26 07:53:42;;;;;;;5.00;4.13;;;15.90;70.80;;;;;;4217880;27;20042;-51
2024/04/26 07:56:25;;;;;;;5.82;4.20;;;16.00;70.00;;;;;;4218475;27;20025;-50
2024/04/26 07:59:10;;;;;;;5.00;3.85;;;16.00;70.00;;;;;;4240877;27;20330;-50
2024/04/26 08:01:53;;;;;;;3.58;3.28;;;16.00;70.00;;;;;;4221306;27;20433;-37
2024/04/26 08:04:36;;;;;;;5.35;3.90;;;16.00;70.00;;;;;;4220515;27;20094;-38
2024/04/26 08:07:19;;;;;;;4.43;3.15;;;16.00;70.00;;;;;;4210480;27;20168;-37
2024/04/26 08:10:02;;;;;;;3.30;3.00;;;16.00;70.90;;;;;;4201209;27;20050;-38
2024/04/26 08:12:45;;;;;;;3.75;3.42;;;15.90;70.00;;;;;;4219471;27;20021;-38
2024/04/26 08:15:31;;;;;;;4.65;3.60;;;15.90;70.10;;;;;;4231375;27;20081;-38
2024/04/26 08:18:13;;;;;;;5.80;2.88;;;15.90;69.90;;;;;;4234232;27;20112;-38
2024/04/26 08:20:57;;;;;;;2.88;2.63;;;15.90;70.00;;;;;;4218195;27;20090;-37
2024/04/26 08:23:40;;;;;;;3.03;2.20;;;15.80;69.90;;;;;;4194574;27;20792;-38
2024/04/26 08:26:23;;;;;;;3.13;2.47;;;15.80;70.00;;;;;;4212907;27;20020;-51
2024/04/26 08:29:06;;;;;;;3.17;2.55;;;15.80;70.00;;;;;;4212465;27;20378;-50
2024/04/26 08:31:53;;;;;;;3.05;2.65;;;15.80;69.80;;;;;;4206578;27;20021;-49
2024/04/26 08:34:36;;;;;;;2.45;2.25;;;15.80;70.10;;;;;;4215980;27;20098;-50
2024/04/26 08:37:19;;;;;;;3.50;3.17;;;15.80;70.30;;;;;;4236156;27;20022;-48
2024/04/26 08:40:03;;;;;;;3.13;2.60;;;15.80;70.70;;;;;;4210520;27;20134;-37
2024/04/26 08:42:47;;;;;;;2.17;1.70;;;15.70;71.10;;;;;;4194515;27;20372;-37
2024/04/26 08:45:36;;;;;;;2.67;1.80;;;15.70;71.70;;;;;;4181746;27;20414;-38
2024/04/26 08:48:22;;;;;;;3.50;2.05;;;15.80;71.50;;;;;;4196699;27;20021;-38
2024/04/26 08:51:08;;;;;;;2.55;1.88;;;15.80;72.10;;;;;;4196382;27;20091;-38
2024/04/26 08:53:51;;;;;;;2.60;2.40;;;15.80;72.50;;;;;;4196775;27;20047;-37
2024/04/26 08:56:40;;;;;;;2.85;2.45;;;15.80;71.70;;;;;;4196495;27;20025;-37
2024/04/26 08:59:24;;;;;;;2.65;2.45;;;15.80;71.80;;;;;;4218030;27;20020;-37
2024/04/26 09:02:07;;;;;;;3.45;2.85;;;15.80;72.40;;;;;;4221682;27;20046;-38
2024/04/26 09:04:53;;;;;;;1.70;1.60;;;15.80;72.40;;;;;;4221851;27;20457;-38
2024/04/26 09:07:37;;;;;;;1.77;1.10;;;15.70;72.50;;;;;;4221892;27;20425;-50
2024/04/26 09:10:20;;;;;;;0.80;0.80;;;15.70;73.00;;;;;;4221582;27;20091;-51
2024/04/26 09:13:03;;;;;;;0.60;0.60;;;15.70;72.70;;;;;;4220538;27;20374;-49
2024/04/26 09:15:47;;;;;;;2.72;0.98;;;15.70;72.90;;;;;;4221921;27;20020;-50
2024/04/26 09:18:29;;;;;;;1.75;0.95;;;15.70;73.00;;;;;;4221570;27;20016;-47
2024/04/26 09:21:15;;;;;;;1.75;0.70;;;15.70;73.20;;;;;;4239150;27;20019;-47
2024/04/26 09:24:01;;;;;;;1.70;0.77;;;15.70;70.90;;;;;;4221745;27;20029;-49
2024/04/26 09:26:44;;;;;;;1.77;0.65;;;15.70;70.40;;;;;;4239197;27;20028;-51
2024/04/26 09:29:27;;;;;;;0.75;0.75;;;15.80;71.50;;;;;;4219570;27;20110;-49
2024/04/26 09:32:10;;;;;;;1.27;0.77;;;15.80;72.20;;;;;;4221803;27;20465;-38
2024/04/26 09:34:59;;;;;;;0.80;0.63;;;15.80;72.20;;;;;;4221032;27;20360;-37
2024/04/26 09:37:49;;;;;;;0.60;0.60;;;15.80;71.50;;;;;;4221933;27;20021;-37
2024/04/26 09:40:33;;;;;;;1.23;0.60;;;15.80;72.10;;;;;;4219832;27;20038;-49
2024/04/26 09:43:16;;;;;;;0.93;0.65;;;15.80;72.30;;;;;;4221325;27;20024;-51
2024/04/26 09:46:01;;;;;;;2.47;0.73;;;15.80;72.10;;;;;;4221611;27;20085;-37
2024/04/26 09:48:44;;;;;;;1.13;0.88;;;15.80;72.50;;;;;;4221612;27;20043;-37
2024/04/26 09:51:28;;;;;;;1.92;0.60;;;15.80;72.70;;;;;;4221824;27;20502;-37
2024/04/26 09:54:19;;;;;;;6.72;1.35;;;15.80;72.80;;;;;;4220867;27;20020;-37
2024/04/26 09:57:02;;;;;;;1.48;0.85;;;15.80;72.70;;;;;;4221555;27;20024;-46
2024/04/26 09:59:45;;;;;;;1.02;0.88;;;15.90;73.40;;;;;;4197619;27;20392;-48
2024/04/26 10:02:30;;;;;;;2.00;0.90;;;15.90;73.20;;;;;;4194995;27;20025;-47
2024/04/26 10:05:20;;;;;;;1.08;0.85;;;15.90;72.60;;;;;;4211061;27;20345;-47
2024/04/26 10:08:05;;;;;;;0.40;0.40;;;16.00;72.40;;;;;;4218688;27;20024;-38
2024/04/26 10:10:51;;;;;;;0.85;0.85;;;16.00;72.50;;;;;;4220602;27;20078;-38
2024/04/26 10:13:44;;;;;;;1.15;0.50;;;16.10;72.20;;;;;;4207479;27;20017;-38
2024/04/26 10:16:29;;;;;;;1.05;0.50;;;16.00;72.60;;;;;;4194359;27;20038;-41
2024/04/26 10:19:19;;;;;;;1.85;0.40;;;16.10;71.90;;;;;;4203778;27;20025;-47
2024/04/26 10:22:05;;;;;;;2.40;0.50;;;16.10;71.80;;;;;;4221511;27;20418;-48
2024/04/26 10:24:52;;;;;;;0.55;0.40;;;16.10;71.90;;;;;;4221367;27;20020;-37
2024/04/26 10:27:41;;;;;;;0.43;0.43;;;16.10;72.50;;;;;;4238266;27;20017;-38
2024/04/26 10:30:24;;;;;;;0.93;0.93;;;16.10;72.80;;;;;;4220750;27;20458;-38
2024/04/26 10:33:08;;;;;;;2.42;0.30;;;16.10;73.30;;;;;;4195061;27;20017;-37
2024/04/26 10:35:52;;;;;;;2.20;0.57;;;16.10;73.00;;;;;;4214862;27;20016;-37
2024/04/26 10:38:43;;;;;;;0.95;0.60;;;16.10;73.00;;;;;;4237888;27;20012;-37
2024/04/26 10:41:26;;;;;;;0.43;0.43;;;16.10;72.20;;;;;;4221291;27;20086;-38
2024/04/26 10:44:12;;;;;;;0.90;0.38;;;16.10;71.80;;;;;;4220715;27;20023;-38
2024/04/26 10:46:58;;;;;;;0.38;0.38;;;16.20;71.50;;;;;;4221211;27;20020;-38
2024/04/26 10:49:41;;;;;;;0.43;0.43;;;16.20;71.40;;;;;;4236068;27;20024;-37
2024/04/26 10:52:24;;;;;;;0.60;0.40;;;16.20;71.70;;;;;;4221070;27;20017;-45
2024/04/26 10:55:07;;;;;;;0.68;0.40;;;16.20;71.60;;;;;;4220911;27;20041;-37
2024/04/26 10:57:58;;;;;;;1.10;0.40;;;16.30;72.20;;;;;;4237125;27;20020;-38
2024/04/26 11:00:43;;;;;;;0.63;0.30;;;16.30;71.90;;;;;;4230388;27;20341;-38
2024/04/26 11:03:26;;;;;;;1.23;0.50;;;16.30;71.50;;;;;;4221321;27;20020;-38
2024/04/26 11:06:09;;;;;;;0.40;0.40;;;16.30;72.00;;;;;;4218892;27;20021;-38
2024/04/26 11:08:52;;;;;;;0.30;0.30;;;16.30;72.10;;;;;;4221197;27;20342;-38
2024/04/26 11:11:37;;;;;;;0.65;0.40;;;16.30;71.70;;;;;;4238440;27;20091;-38
2024/04/26 11:14:22;;;;;;;0.52;0.52;;;16.30;71.40;;;;;;4221707;27;20093;-37
2024/04/26 11:17:09;;;;;;;0.65;0.22;;;16.30;71.10;;;;;;4220933;27;20045;-37
2024/04/26 11:19:52;;;;;;;2.15;0.50;;;16.30;70.80;;;;;;4221346;27;20054;-37
2024/04/26 11:22:35;;;;;;;1.02;0.40;;;16.30;72.30;;;;;;4220987;27;20021;-37
2024/04/26 11:25:18;;;;;;;0.90;0.30;;;16.30;71.80;;;;;;4220711;27;20419;-37
2024/04/26 11:28:00;;;;;;;3.05;0.40;;;16.30;71.40;;;;;;4220928;27;20094;-37
2024/04/26 11:30:43;;;;;;;1.50;0.40;;;16.30;71.20;;;;;;4220870;27;20472;-48
2024/04/26 11:33:29;;;;;;;0.30;0.30;;;16.30;70.90;;;;;;4219377;27;20056;-47
2024/04/26 11:36:18;;;;;;;0.35;0.32;;;16.30;70.70;;;;;;4212035;27;20090;-37
2024/04/26 11:39:01;;;;;;;0.43;0.40;;;16.30;70.20;;;;;;4221157;27;20021;-37
2024/04/26 11:41:44;;;;;;;0.75;0.40;;;16.30;70.80;;;;;;4195248;27;20022;-38
2024/04/26 11:44:27;;;;;;;0.55;0.38;;;16.30;70.90;;;;;;4195021;27;20064;-37
2024/04/26 11:47:10;;;;;;;0.88;0.40;;;16.30;70.80;;;;;;4194688;27;20086;-37
2024/04/26 11:49:55;;;;;;;0.77;0.35;;;16.30;70.20;;;;;;4202649;27;20086;-37
2024/04/26 11:52:39;;;;;;;1.05;0.40;;;16.30;70.20;;;;;;4237899;27;20086;-37
2024/04/26 11:55:22;;;;;;;1.48;0.47;;;16.30;71.30;;;;;;4220201;27;20028;-51
2024/04/26 11:58:06;;;;;;;1.65;0.52;;;16.30;71.90;;;;;;4213209;27;20054;-48
2024/04/26 12:00:48;;;;;;;0.60;0.50;;;16.30;71.80;;;;;;4211591;27;20081;-49
2024/04/26 12:03:31;;;;;;;1.25;0.50;;;16.40;72.20;;;;;;4220586;27;20024;-52
2024/04/26 12:06:17;;;;;;;1.55;0.30;;;16.40;71.90;;;;;;4236971;27;20020;-47
2024/04/26 12:09:00;;;;;;;1.38;0.25;;;16.40;71.80;;;;;;4219090;27;20024;-49
2024/04/26 12:11:46;;;;;;;0.88;0.52;;;16.40;72.20;;;;;;4197802;27;20499;-48
2024/04/26 12:14:29;;;;;;;0.32;0.32;;;16.30;71.00;;;;;;4218295;27;20024;-51
2024/04/26 12:17:11;;;;;;;2.13;0.30;;;16.30;71.80;;;;;;4217826;27;20021;-47
2024/04/26 12:19:55;;;;;;;1.00;0.30;;;16.30;70.30;;;;;;4220467;27;20028;-37
2024/04/26 12:22:40;;;;;;;1.08;0.38;;;16.30;70.30;;;;;;4219207;27;20024;-49
2024/04/26 12:25:23;;;;;;;0.55;0.30;;;16.30;70.20;;;;;;4219398;27;20054;-48
2024/04/26 12:28:09;;;;;;;1.17;0.28;;;16.30;70.60;;;;;;4220019;27;20045;-37
2024/04/26 12:30:52;;;;;;;0.82;0.43;;;16.30;70.60;;;;;;4220057;27;20012;-36
2024/04/26 12:33:35;;;;;;;0.73;0.50;;;16.30;71.00;;;;;;4203987;27;20021;-37
2024/04/26 12:36:18;;;;;;;0.77;0.50;;;16.30;71.10;;;;;;4218069;27;20142;-37
2024/04/26 12:39:05;;;;;;;1.15;0.28;;;16.30;71.30;;;;;;4240744;27;20340;-37
2024/04/26 12:41:48;;;;;;;3.22;0.55;;;16.30;70.90;;;;;;4246509;27;20024;-47
2024/04/26 12:44:31;;;;;;;0.65;0.40;;;16.40;70.30;;;;;;4215314;27;20032;-48
2024/04/26 12:47:17;;;;;;;0.30;0.30;;;16.40;71.90;;;;;;4218860;27;20021;-47
2024/04/26 12:50:00;;;;;;;0.40;0.40;;;16.50;71.40;;;;;;4217675;27;20148;-48
2024/04/26 12:52:43;;;;;;;0.40;0.40;;;16.50;70.60;;;;;;4209184;27;20359;-48
2024/04/26 12:55:28;;;;;;;0.30;0.30;;;16.50;71.40;;;;;;4216783;27;20078;-49
2024/04/26 12:58:11;;;;;;;0.57;0.55;;;16.60;69.40;;;;;;4218260;27;20027;-48
2024/04/26 13:00:54;;;;;;;0.35;0.30;;;16.50;69.00;;;;;;4218832;27;20089;-47
2024/04/26 13:03:36;;;;;;;2.50;0.60;;;16.60;69.20;;;;;;4218227;27;20020;-51
2024/04/26 13:06:19;;;;;;;0.63;0.32;;;16.60;69.00;;;;;;4219134;27;20024;-48
2024/04/26 13:09:02;;;;;;;0.40;0.40;;;16.60;69.60;;;;;;4218526;27;20019;-50
2024/04/26 13:11:47;;;;;;;0.40;0.40;;;16.60;69.80;;;;;;4218209;27;20086;-49
2024/04/26 13:14:30;;;;;;;0.85;0.70;;;16.60;69.80;;;;;;4217735;27;20016;-48
2024/04/26 13:17:14;;;;;;;0.30;0.30;;;16.60;70.30;;;;;;4218163;27;20094;-48
2024/04/26 13:19:56;;;;;;;2.53;0.55;;;16.60;70.20;;;;;;4212209;27;20029;-49
2024/04/26 13:22:40;;;;;;;0.40;0.40;;;16.60;70.70;;;;;;4220437;27;20024;-48
2024/04/26 13:25:22;;;;;;;1.40;0.63;;;16.60;70.40;;;;;;4192556;27;20021;-49
2024/04/26 13:28:08;;;;;;;1.17;0.40;;;16.60;71.00;;;;;;4192997;27;20315;-49
2024/04/26 13:30:50;;;;;;;0.47;0.47;;;16.60;71.20;;;;;;4195713;27;20029;-52
2024/04/26 13:33:35;;;;;;;1.38;0.63;;;16.60;71.00;;;;;;4208929;27;20028;-38
2024/04/26 13:36:18;;;;;;;0.57;0.30;;;16.60;71.50;;;;;;4232604;27;20085;-37
2024/04/26 13:39:01;;;;;;;1.00;0.45;;;16.60;72.10;;;;;;4247160;27;20023;-37
2024/04/26 13:41:45;;;;;;;0.50;0.50;;;16.70;70.20;;;;;;4210624;27;20370;-51
2024/04/26 13:44:31;;;;;;;0.40;0.40;;;16.60;69.30;;;;;;4220749;27;20049;-48
2024/04/26 13:47:14;;;;;;;0.30;0.30;;;16.70;70.10;;;;;;4237335;27;20021;-48
2024/04/26 13:49:57;;;;;;;1.30;0.30;;;16.70;70.30;;;;;;4221263;27;20097;-38
2024/04/26 13:52:39;;;;;;;5.85;0.88;;;16.70;70.40;;;;;;4217811;27;20082;-37
2024/04/26 13:55:22;;;;;;;0.47;0.38;;;16.70;70.60;;;;;;4220736;27;20491;-37
2024/04/26 13:58:05;;;;;;;1.60;0.35;;;16.70;69.10;;;;;;4220279;27;20071;-55
2024/04/26 14:00:51;;;;;;;1.08;0.38;;;16.70;69.40;;;;;;4214715;27;20346;-47
2024/04/26 14:03:34;;;;;;;0.40;0.40;;;16.70;70.00;;;;;;4221053;27;20017;-51
2024/04/26 14:06:18;;;;;;;0.50;0.50;;;16.70;69.60;;;;;;4220957;27;20024;-50
2024/04/26 14:09:02;;;;;;;2.13;0.52;;;16.70;69.10;;;;;;4221405;27;20083;-50
2024/04/26 14:11:45;;;;;;;0.47;0.30;;;16.70;68.50;;;;;;4237548;27;20074;-50